Keston, United Kingdom

12:54 AM GMT on February 10, 2016 (GMT +0000)
Biggin Hill | | Change Station
CLOSE
Current Station
Personal Weather Station
Location: Biggin Hill,
Elevation: 495 ft
Nearby Weather Stations

Elev 495 ft 51.31 °N, 0.03 °E | Updated 2 seconds ago

Mostly Cloudy
Mostly Cloudy
39.0 °F
Feels Like 35 °F
N
5.4
Wind Variable Wind from South
Gusts 7.6 mph

Today
High -- | Low -- °F
--% Chance of Precip.
Yesterday
High -- | Low -- °F
Precip. -- in
Pressure 29.27 in
Visibility 6.2 miles
Clouds Few 1600 ft
Mostly Cloudy 3300 ft
Windchill 35 °F
Dew Point 34 °F
Humidity 81%
Rainfall 0.01 in
Snow Depth Not available.
7:23 AM 5:05 PM
Waxing Crescent, 3% visible
METAR EGKK 100050Z 25013KT 9999 FEW016 BKN033 04/02 Q0991
Pressure 29.27 in
Visibility 6.2 miles
Clouds Few 1600 ft
Mostly Cloudy 3300 ft
Windchill 35 °F
Dew Point 34 °F
Humidity 81%
Rainfall 0.01 in
Snow Depth Not available.
7:23 AM 5:05 PM
Waxing Crescent, 3% visible
METAR EGKK 100050Z 25013KT 9999 FEW016 BKN033 04/02 Q0991

10-Day Weather Forecast

Almanac

Astronomy

Feb. 10, 2016 Rise Set
Actual Time
Civil Twilight
Nautical Twilight
Astronomical Twilight
Moon
Length of Visible Light
Length of Day
Tomorrow will be .
, % of the Moon is Illuminated

Today's Extremes

Country Highs Country Lows

Community

WunderPhotos

Upload Photos

1,891,752 photos uploaded!

WunderBlog® & News

Nearby

Air Quality

  Air Quality AQ Index Pollutant
Not available.

Snow Depth

Station Depth Elevation

Earthquake Activity

City Distance Mag. Time & Date
Minimum magnitude displayed is 2.5.

Coastal Water Temperatures

Place Temperature

Stations

Nearby Weather Stations

Station Location Temp. Windchill Dew Point Humidity Wind Precip. Elev Updated Type